sensor_id;sensor_type;location;lat;lon;timestamp;pressure;altitude;pressure_sealevel;temperature;humidity
71768;BME280;59604;52.138;5.446;2023-02-28T00:00:46;103389.00;;;0.72;90.79
71768;BME280;59604;52.138;5.446;2023-02-28T00:03:12;103382.03;;;0.75;91.02
71768;BME280;59604;52.138;5.446;2023-02-28T00:05:39;103381.19;;;0.74;90.95
71768;BME280;59604;52.138;5.446;2023-02-28T00:08:07;103381.97;;;0.76;90.84
71768;BME280;59604;52.138;5.446;2023-02-28T00:10:34;103389.63;;;0.79;90.70
71768;BME280;59604;52.138;5.446;2023-02-28T00:13:03;103398.00;;;0.86;91.22
71768;BME280;59604;52.138;5.446;2023-02-28T00:15:31;103390.09;;;0.89;91.11
71768;BME280;59604;52.138;5.446;2023-02-28T00:17:58;103385.69;;;0.91;91.60
71768;BME280;59604;52.138;5.446;2023-02-28T00:20:25;103394.19;;;0.94;91.61
71768;BME280;59604;52.138;5.446;2023-02-28T00:22:53;103392.31;;;0.98;92.11
71768;BME280;59604;52.138;5.446;2023-02-28T00:25:22;103387.91;;;1.00;92.50
71768;BME280;59604;52.138;5.446;2023-02-28T00:27:50;103392.28;;;1.00;92.11
71768;BME280;59604;52.138;5.446;2023-02-28T00:30:19;103394.69;;;1.04;92.65
71768;BME280;59604;52.138;5.446;2023-02-28T00:32:46;103392.91;;;1.05;92.39
71768;BME280;59604;52.138;5.446;2023-02-28T00:35:13;103386.81;;;1.06;92.56
71768;BME280;59604;52.138;5.446;2023-02-28T00:37:40;103385.84;;;1.08;93.17
71768;BME280;59604;52.138;5.446;2023-02-28T00:40:08;103379.69;;;1.11;93.20
71768;BME280;59604;52.138;5.446;2023-02-28T00:42:35;103376.94;;;1.14;92.66
71768;BME280;59604;52.138;5.446;2023-02-28T00:45:03;103383.78;;;1.16;92.91
71768;BME280;59604;52.138;5.446;2023-02-28T00:47:32;103381.91;;;1.20;92.96
71768;BME280;59604;52.138;5.446;2023-02-28T00:49:59;103387.03;;;1.22;92.64
71768;BME280;59604;52.138;5.446;2023-02-28T00:52:26;103382.63;;;1.24;92.42
71768;BME280;59604;52.138;5.446;2023-02-28T00:54:53;103386.84;;;1.26;92.96
71768;BME280;59604;52.138;5.446;2023-02-28T00:57:20;103373.78;;;1.28;92.83
71768;BME280;59604;52.138;5.446;2023-02-28T00:59:46;103379.91;;;1.27;93.01
71768;BME280;59604;52.138;5.446;2023-02-28T01:02:13;103382.50;;;1.27;92.98
71768;BME280;59604;52.138;5.446;2023-02-28T01:04:40;103386.72;;;1.29;93.30
71768;BME280;59604;52.138;5.446;2023-02-28T01:07:06;103388.44;;;1.29;93.38
71768;BME280;59604;52.138;5.446;2023-02-28T01:09:33;103386.66;;;1.31;93.22
71768;BME280;59604;52.138;5.446;2023-02-28T01:11:59;103380.53;;;1.32;93.14
71768;BME280;59604;52.138;5.446;2023-02-28T01:14:26;103390.78;;;1.35;93.68
71768;BME280;59604;52.138;5.446;2023-02-28T01:16:53;103388.19;;;1.35;93.88
71768;BME280;59604;52.138;5.446;2023-02-28T01:19:19;103386.44;;;1.35;93.62
71768;BME280;59604;52.138;5.446;2023-02-28T01:21:46;103385.47;;;1.38;94.02
71768;BME280;59604;52.138;5.446;2023-02-28T01:24:12;103379.44;;;1.37;93.81
71768;BME280;59604;52.138;5.446;2023-02-28T01:26:39;103376.84;;;1.37;94.38
71768;BME280;59604;52.138;5.446;2023-02-28T01:29:05;103376.06;;;1.35;94.11
71768;BME280;59604;52.138;5.446;2023-02-28T01:31:32;103373.47;;;1.35;94.54
71768;BME280;59604;52.138;5.446;2023-02-28T01:33:59;103375.16;;;1.36;94.22
71768;BME280;59604;52.138;5.446;2023-02-28T01:36:26;103371.66;;;1.37;94.56
71768;BME280;59604;52.138;5.446;2023-02-28T01:38:52;103376.84;;;1.37;94.22
71768;BME280;59604;52.138;5.446;2023-02-28T01:41:23;103369.91;;;1.38;94.77
71768;BME280;59604;52.138;5.446;2023-02-28T01:46:19;103373.25;;;1.40;94.31
71768;BME280;59604;52.138;5.446;2023-02-28T01:48:56;103369.69;;;1.42;94.75
71768;BME280;59604;52.138;5.446;2023-02-28T01:51:31;103362.69;;;1.44;94.19
71768;BME280;59604;52.138;5.446;2023-02-28T01:54:08;103362.69;;;1.44;94.65
71768;BME280;59604;52.138;5.446;2023-02-28T01:56:47;103359.09;;;1.47;94.34
71768;BME280;59604;52.138;5.446;2023-02-28T01:59:22;103359.19;;;1.45;94.21
71768;BME280;59604;52.138;5.446;2023-02-28T02:01:50;103359.97;;;1.48;94.55
71768;BME280;59604;52.138;5.446;2023-02-28T02:04:17;103351.25;;;1.49;94.34
71768;BME280;59604;52.138;5.446;2023-02-28T02:06:46;103350.28;;;1.51;94.21
71768;BME280;59604;52.138;5.446;2023-02-28T02:09:14;103350.28;;;1.51;93.86
71768;BME280;59604;52.138;5.446;2023-02-28T02:11:42;103342.34;;;1.54;94.05
71768;BME280;59604;52.138;5.446;2023-02-28T02:34:17;103345.53;;;1.61;94.12
71768;BME280;59604;52.138;5.446;2023-02-28T02:37:02;103346.22;;;1.64;94.18
71768;BME280;59604;52.138;5.446;2023-02-28T02:42:28;103348.56;;;1.71;94.27
71768;BME280;59604;52.138;5.446;2023-02-28T02:45:02;103357.13;;;1.73;94.59
71768;BME280;59604;52.138;5.446;2023-02-28T02:47:32;103351.94;;;1.73;94.87
71768;BME280;59604;52.138;5.446;2023-02-28T02:50:02;103347.59;;;1.73;95.18
71768;BME280;59604;52.138;5.446;2023-02-28T02:52:44;103351.03;;;1.74;95.61
71768;BME280;59604;52.138;5.446;2023-02-28T02:55:12;103346.69;;;1.74;95.02
71768;BME280;59604;52.138;5.446;2023-02-28T02:58:18;103344.91;;;1.75;95.67
71768;BME280;59604;52.138;5.446;2023-02-28T03:00:41;103343.09;;;1.77;95.22
71768;BME280;59604;52.138;5.446;2023-02-28T03:03:10;103342.25;;;1.76;95.48
71768;BME280;59604;52.138;5.446;2023-02-28T03:05:48;103345.63;;;1.78;95.74
71768;BME280;59604;52.138;5.446;2023-02-28T03:08:15;103353.47;;;1.77;95.60
71768;BME280;59604;52.138;5.446;2023-02-28T03:10:44;103357.84;;;1.76;96.68
71768;BME280;59604;52.138;5.446;2023-02-28T03:28:27;103352.72;;;1.75;97.20
71768;BME280;59604;52.138;5.446;2023-02-28T03:31:06;103352.72;;;1.75;96.79
71768;BME280;59604;52.138;5.446;2023-02-28T03:36:29;103349.31;;;1.73;97.33
71768;BME280;59604;52.138;5.446;2023-02-28T03:39:04;103352.00;;;1.71;98.17
71768;BME280;59604;52.138;5.446;2023-02-28T03:44:43;103361.69;;;1.67;98.25
71768;BME280;59604;52.138;5.446;2023-02-28T03:49:58;103365.38;;;1.62;98.61
71768;BME280;59604;52.138;5.446;2023-02-28T03:52:31;103374.94;;;1.61;98.57
71768;BME280;59604;52.138;5.446;2023-02-28T03:55:03;103361.19;;;1.59;98.27
71768;BME280;59604;52.138;5.446;2023-02-28T04:00:20;103370.75;;;1.59;98.33
71768;BME280;59604;52.138;5.446;2023-02-28T04:02:48;103371.63;;;1.58;98.37
71768;BME280;59604;52.138;5.446;2023-02-28T04:05:21;103365.59;;;1.57;98.15
71768;BME280;59604;52.138;5.446;2023-02-28T04:07:48;103372.53;;;1.57;98.03
71768;BME280;59604;52.138;5.446;2023-02-28T04:10:16;103368.31;;;1.54;97.78
71768;BME280;59604;52.138;5.446;2023-02-28T04:12:43;103371.78;;;1.55;96.69
71768;BME280;59604;52.138;5.446;2023-02-28T04:15:10;103369.94;;;1.57;95.23
71768;BME280;59604;52.138;5.446;2023-02-28T04:17:37;103377.66;;;1.58;93.71
71768;BME280;59604;52.138;5.446;2023-02-28T04:20:04;103362.06;;;1.58;93.63
71768;BME280;59604;52.138;5.446;2023-02-28T04:22:36;103371.56;;;1.59;92.51
71768;BME280;59604;52.138;5.446;2023-02-28T04:25:03;103369.94;;;1.57;91.63
71768;BME280;59604;52.138;5.446;2023-02-28T04:27:30;103373.50;;;1.54;90.83
71768;BME280;59604;52.138;5.446;2023-02-28T04:29:58;103375.34;;;1.52;90.73
71768;BME280;59604;52.138;5.446;2023-02-28T04:32:24;103382.34;;;1.50;89.46
71768;BME280;59604;52.138;5.446;2023-02-28T04:34:51;103388.47;;;1.49;89.59
71768;BME280;59604;52.138;5.446;2023-02-28T04:37:18;103384.94;;;1.50;89.13
71768;BME280;59604;52.138;5.446;2023-02-28T04:39:44;103385.88;;;1.49;88.65
71768;BME280;59604;52.138;5.446;2023-02-28T04:42:12;103379.84;;;1.49;88.36
71768;BME280;59604;52.138;5.446;2023-02-28T04:44:39;103392.03;;;1.47;88.38
71768;BME280;59604;52.138;5.446;2023-02-28T04:47:05;103390.44;;;1.44;87.30
71768;BME280;59604;52.138;5.446;2023-02-28T04:49:32;103386.94;;;1.43;87.61
71768;BME280;59604;52.138;5.446;2023-02-28T04:51:59;103381.72;;;1.45;87.74
71768;BME280;59604;52.138;5.446;2023-02-28T04:54:26;103378.28;;;1.44;87.75
71768;BME280;59604;52.138;5.446;2023-02-28T04:56:54;103381.84;;;1.42;87.90
71768;BME280;59604;52.138;5.446;2023-02-28T04:59:21;103383.66;;;1.40;88.02
71768;BME280;59604;52.138;5.446;2023-02-28T05:01:48;103392.31;;;1.40;87.61
71768;BME280;59604;52.138;5.446;2023-02-28T05:04:15;103383.72;;;1.38;88.35
71768;BME280;59604;52.138;5.446;2023-02-28T05:06:42;103381.22;;;1.37;88.31
71768;BME280;59604;52.138;5.446;2023-02-28T05:09:09;103378.78;;;1.32;88.73
71768;BME280;59604;52.138;5.446;2023-02-28T05:11:38;103377.31;;;1.27;89.26
71768;BME280;59604;52.138;5.446;2023-02-28T05:14:10;103377.44;;;1.24;89.90
71768;BME280;59604;52.138;5.446;2023-02-28T05:16:38;103382.69;;;1.22;90.08
71768;BME280;59604;52.138;5.446;2023-02-28T05:19:04;103394.94;;;1.18;90.40
71768;BME280;59604;52.138;5.446;2023-02-28T05:21:35;103391.56;;;1.16;90.26
71768;BME280;59604;52.138;5.446;2023-02-28T05:24:05;103389.88;;;1.15;91.05
71768;BME280;59604;52.138;5.446;2023-02-28T05:26:35;103388.06;;;1.17;90.96
71768;BME280;59604;52.138;5.446;2023-02-28T05:29:02;103390.66;;;1.17;91.66
71768;BME280;59604;52.138;5.446;2023-02-28T05:31:29;103397.56;;;1.18;91.67
71768;BME280;59604;52.138;5.446;2023-02-28T05:33:56;103387.16;;;1.18;91.76
71768;BME280;59604;52.138;5.446;2023-02-28T05:36:22;103393.41;;;1.14;91.66
71768;BME280;59604;52.138;5.446;2023-02-28T05:38:50;103388.38;;;1.10;91.46
71768;BME280;59604;52.138;5.446;2023-02-28T05:41:18;103390.00;;;1.12;91.99
71768;BME280;59604;52.138;5.446;2023-02-28T05:43:46;103386.50;;;1.13;92.48
71768;BME280;59604;52.138;5.446;2023-02-28T05:46:12;103385.59;;;1.14;91.96
71768;BME280;59604;52.138;5.446;2023-02-28T05:48:42;103396.94;;;1.12;92.55
71768;BME280;59604;52.138;5.446;2023-02-28T05:51:09;103388.31;;;1.11;92.77
71768;BME280;59604;52.138;5.446;2023-02-28T05:53:36;103389.09;;;1.13;92.76
71768;BME280;59604;52.138;5.446;2023-02-28T05:56:03;103402.91;;;1.14;92.41
71768;BME280;59604;52.138;5.446;2023-02-28T05:58:30;103390.09;;;1.11;92.96
71768;BME280;59604;52.138;5.446;2023-02-28T06:01:19;103387.50;;;1.11;93.14
71768;BME280;59604;52.138;5.446;2023-02-28T06:03:46;103394.56;;;1.07;93.15
71768;BME280;59604;52.138;5.446;2023-02-28T06:06:13;103392.06;;;1.04;93.04
71768;BME280;59604;52.138;5.446;2023-02-28T06:08:39;103388.75;;;1.01;93.53
71768;BME280;59604;52.138;5.446;2023-02-28T06:11:06;103393.28;;;0.95;93.76
71768;BME280;59604;52.138;5.446;2023-02-28T06:13:33;103389.19;;;0.90;94.45
71768;BME280;59604;52.138;5.446;2023-02-28T06:16:02;103386.53;;;0.91;94.73
71768;BME280;59604;52.138;5.446;2023-02-28T06:18:29;103391.84;;;0.88;94.69
71768;BME280;59604;52.138;5.446;2023-02-28T06:20:56;103393.53;;;0.89;95.06
71768;BME280;59604;52.138;5.446;2023-02-28T06:23:22;103384.97;;;0.87;95.12
71768;BME280;59604;52.138;5.446;2023-02-28T06:25:49;103389.25;;;0.88;95.42
71768;BME280;59604;52.138;5.446;2023-02-28T06:28:16;103377.84;;;0.92;95.66
71768;BME280;59604;52.138;5.446;2023-02-28T06:30:42;103386.41;;;0.94;95.77
71768;BME280;59604;52.138;5.446;2023-02-28T06:33:11;103383.88;;;0.93;96.26
71768;BME280;59604;52.138;5.446;2023-02-28T06:35:38;103387.44;;;0.90;96.39
71768;BME280;59604;52.138;5.446;2023-02-28T06:38:05;103386.63;;;0.88;96.55
71768;BME280;59604;52.138;5.446;2023-02-28T06:40:31;103393.59;;;0.88;96.88
71768;BME280;59604;52.138;5.446;2023-02-28T06:43:02;103386.63;;;0.88;96.55
71768;BME280;59604;52.138;5.446;2023-02-28T06:45:29;103390.09;;;0.89;97.19
71768;BME280;59604;52.138;5.446;2023-02-28T06:47:55;103380.56;;;0.89;97.11
71768;BME280;59604;52.138;5.446;2023-02-28T06:50:22;103376.03;;;0.94;97.04
71768;BME280;59604;52.138;5.446;2023-02-28T06:52:48;103384.66;;;0.95;97.49
71768;BME280;59604;52.138;5.446;2023-02-28T06:55:20;103398.41;;;0.97;96.93
71768;BME280;59604;52.138;5.446;2023-02-28T06:57:46;103406.19;;;0.97;97.17
71768;BME280;59604;52.138;5.446;2023-02-28T07:00:13;103401.78;;;0.99;97.23
71768;BME280;59604;52.138;5.446;2023-02-28T07:02:40;103405.97;;;1.03;97.00
71768;BME280;59604;52.138;5.446;2023-02-28T07:05:07;103407.56;;;1.06;97.51
71768;BME280;59604;52.138;5.446;2023-02-28T07:07:34;103410.16;;;1.06;97.39
71768;BME280;59604;52.138;5.446;2023-02-28T07:10:02;103409.22;;;1.08;97.22
71768;BME280;59604;52.138;5.446;2023-02-28T07:12:29;103405.78;;;1.08;97.58
71768;BME280;59604;52.138;5.446;2023-02-28T07:14:56;103407.53;;;1.07;97.93
71768;BME280;59604;52.138;5.446;2023-02-28T07:17:23;103404.94;;;1.07;97.92
71768;BME280;59604;52.138;5.446;2023-02-28T07:19:49;103399.53;;;1.12;97.87
71768;BME280;59604;52.138;5.446;2023-02-28T07:22:16;103411.69;;;1.11;97.68
71768;BME280;59604;52.138;5.446;2023-02-28T07:24:42;103407.38;;;1.10;97.53
71768;BME280;59604;52.138;5.446;2023-02-28T07:27:09;103417.63;;;1.13;97.63
71768;BME280;59604;52.138;5.446;2023-02-28T07:29:36;103421.22;;;1.11;97.98
71768;BME280;59604;52.138;5.446;2023-02-28T07:32:03;103413.44;;;1.11;97.85
71768;BME280;59604;52.138;5.446;2023-02-28T07:34:30;103408.91;;;1.16;98.43
71768;BME280;59604;52.138;5.446;2023-02-28T07:36:57;103413.25;;;1.15;98.17
71768;BME280;59604;52.138;5.446;2023-02-28T07:39:23;103411.50;;;1.16;98.27
71768;BME280;59604;52.138;5.446;2023-02-28T07:41:50;103417.59;;;1.15;98.47
71768;BME280;59604;52.138;5.446;2023-02-28T07:44:16;103422.78;;;1.15;99.35
71768;BME280;59604;52.138;5.446;2023-02-28T07:46:43;103425.31;;;1.16;99.08
71768;BME280;59604;52.138;5.446;2023-02-28T07:49:10;103426.81;;;1.22;98.90
71768;BME280;59604;52.138;5.446;2023-02-28T07:51:36;103424.16;;;1.24;99.26
71768;BME280;59604;52.138;5.446;2023-02-28T07:54:03;103420.59;;;1.26;99.44
71768;BME280;59604;52.138;5.446;2023-02-28T07:56:30;103416.16;;;1.28;99.57
71768;BME280;59604;52.138;5.446;2023-02-28T07:58:57;103420.28;;;1.34;99.94
71768;BME280;59604;52.138;5.446;2023-02-28T08:01:23;103415.41;;;1.47;100.00
71768;BME280;59604;52.138;5.446;2023-02-28T08:03:50;103422.03;;;1.54;99.72
71768;BME280;59604;52.138;5.446;2023-02-28T08:06:19;103432.50;;;1.52;100.00
71768;BME280;59604;52.138;5.446;2023-02-28T08:08:46;103442.88;;;1.52;99.84
71768;BME280;59604;52.138;5.446;2023-02-28T08:11:14;103437.59;;;1.54;99.19
71768;BME280;59604;52.138;5.446;2023-02-28T08:13:41;103439.03;;;1.61;99.17
71768;BME280;59604;52.138;5.446;2023-02-28T08:16:11;103430.91;;;1.68;99.18
71768;BME280;59604;52.138;5.446;2023-02-28T08:18:38;103447.28;;;1.71;99.72
71768;BME280;59604;52.138;5.446;2023-02-28T08:21:11;103443.78;;;1.72;99.06
71768;BME280;59604;52.138;5.446;2023-02-28T08:23:38;103449.91;;;1.71;98.64
71768;BME280;59604;52.138;5.446;2023-02-28T08:26:05;103430.47;;;1.79;98.63
71768;BME280;59604;52.138;5.446;2023-02-28T08:28:32;103442.94;;;1.91;98.19
71768;BME280;59604;52.138;5.446;2023-02-28T08:30:59;103439.91;;;2.01;98.29
71768;BME280;59604;52.138;5.446;2023-02-28T08:33:27;103440.50;;;2.07;97.54
71768;BME280;59604;52.138;5.446;2023-02-28T08:35:55;103434.81;;;2.18;97.00
71768;BME280;59604;52.138;5.446;2023-02-28T08:38:23;103433.56;;;2.27;96.50
71768;BME280;59604;52.138;5.446;2023-02-28T08:40:53;103447.34;;;2.29;95.15
71768;BME280;59604;52.138;5.446;2023-02-28T08:43:23;103434.97;;;2.34;93.96
71768;BME280;59604;52.138;5.446;2023-02-28T08:45:53;103434.69;;;2.40;93.07
71768;BME280;59604;52.138;5.446;2023-02-28T08:48:20;103435.88;;;2.52;92.39
71768;BME280;59604;52.138;5.446;2023-02-28T08:51:02;103422.44;;;2.61;90.89
71768;BME280;59604;52.138;5.446;2023-02-28T08:53:34;103423.63;;;2.73;90.39
71768;BME280;59604;52.138;5.446;2023-02-28T08:56:06;103429.72;;;2.72;88.29
71768;BME280;59604;52.138;5.446;2023-02-28T08:58:34;103425.59;;;2.67;86.15
71768;BME280;59604;52.138;5.446;2023-02-28T09:01:10;103438.59;;;2.67;85.57
71768;BME280;59604;52.138;5.446;2023-02-28T09:03:38;103433.97;;;2.74;85.18
71768;BME280;59604;52.138;5.446;2023-02-28T09:06:05;103433.72;;;2.79;83.78
71768;BME280;59604;52.138;5.446;2023-02-28T09:08:32;103431.41;;;2.92;82.22
71768;BME280;59604;52.138;5.446;2023-02-28T09:10:58;103435.59;;;3.13;79.58
71768;BME280;59604;52.138;5.446;2023-02-28T09:13:29;103436.13;;;3.37;77.20
71768;BME280;59604;52.138;5.446;2023-02-28T09:16:00;103431.34;;;3.62;74.13
71768;BME280;59604;52.138;5.446;2023-02-28T09:18:27;103440.16;;;3.77;69.60
71768;BME280;59604;52.138;5.446;2023-02-28T09:20:54;103436.91;;;3.90;72.86
71768;BME280;59604;52.138;5.446;2023-02-28T09:23:21;103434.91;;;3.95;69.87
71768;BME280;59604;52.138;5.446;2023-02-28T09:25:52;103436.06;;;3.89;68.88
71768;BME280;59604;52.138;5.446;2023-02-28T09:28:19;103433.19;;;3.94;68.90
71768;BME280;59604;52.138;5.446;2023-02-28T09:30:49;103435.91;;;3.92;68.60
71768;BME280;59604;52.138;5.446;2023-02-28T09:33:17;103434.53;;;3.85;65.83
71768;BME280;59604;52.138;5.446;2023-02-28T09:35:48;103442.16;;;3.72;64.36
71768;BME280;59604;52.138;5.446;2023-02-28T09:38:15;103439.72;;;3.69;65.15
71768;BME280;59604;52.138;5.446;2023-02-28T09:40:50;103444.00;;;3.70;65.19
71768;BME280;59604;52.138;5.446;2023-02-28T09:43:22;103443.06;;;3.71;65.58
71768;BME280;59604;52.138;5.446;2023-02-28T09:45:56;103442.22;;;3.71;63.48
71768;BME280;59604;52.138;5.446;2023-02-28T09:48:31;103444.81;;;3.71;63.01
71768;BME280;59604;52.138;5.446;2023-02-28T09:51:16;103452.19;;;3.80;62.62
71768;BME280;59604;52.138;5.446;2023-02-28T09:53:49;103446.25;;;3.94;62.10
71768;BME280;59604;52.138;5.446;2023-02-28T09:56:32;103446.47;;;4.06;61.46
71768;BME280;59604;52.138;5.446;2023-02-28T10:05:00;103433.53;;;4.52;59.66
71768;BME280;59604;52.138;5.446;2023-02-28T10:13:12;103432.59;;;5.01;56.83
71768;BME280;59604;52.138;5.446;2023-02-28T10:15:41;103418.59;;;5.02;55.34
71768;BME280;59604;52.138;5.446;2023-02-28T10:18:15;103425.50;;;5.03;55.39
71768;BME280;59604;52.138;5.446;2023-02-28T10:20:46;103426.50;;;5.16;54.45
71768;BME280;59604;52.138;5.446;2023-02-28T10:23:28;103417.38;;;5.23;54.36
71768;BME280;59604;52.138;5.446;2023-02-28T10:26:09;103416.44;;;5.24;55.03
71768;BME280;59604;52.138;5.446;2023-02-28T10:28:38;103407.16;;;5.19;50.89
71768;BME280;59604;52.138;5.446;2023-02-28T10:31:11;103423.66;;;5.05;50.28
71768;BME280;59604;52.138;5.446;2023-02-28T10:33:40;103419.78;;;4.96;50.67
71768;BME280;59604;52.138;5.446;2023-02-28T10:36:13;103421.53;;;4.96;49.83
71768;BME280;59604;52.138;5.446;2023-02-28T10:38:40;103409.19;;;4.83;52.29
71768;BME280;59604;52.138;5.446;2023-02-28T10:41:28;103422.59;;;4.77;50.41
71768;BME280;59604;52.138;5.446;2023-02-28T10:44:14;103424.44;;;4.75;50.18
71768;BME280;59604;52.138;5.446;2023-02-28T10:46:41;103416.34;;;4.80;51.44
71768;BME280;59604;52.138;5.446;2023-02-28T10:49:20;103413.66;;;4.81;51.65
71768;BME280;59604;52.138;5.446;2023-02-28T10:51:50;103423.75;;;4.88;52.25
71768;BME280;59604;52.138;5.446;2023-02-28T10:54:33;103424.94;;;4.82;51.70
71768;BME280;59604;52.138;5.446;2023-02-28T10:57:18;103417.53;;;4.74;51.37
71768;BME280;59604;52.138;5.446;2023-02-28T10:59:45;103405.97;;;4.78;50.37
71768;BME280;59604;52.138;5.446;2023-02-28T11:02:33;103400.59;;;4.81;52.11
71768;BME280;59604;52.138;5.446;2023-02-28T11:05:00;103399.03;;;4.93;52.28
71768;BME280;59604;52.138;5.446;2023-02-28T11:07:27;103394.97;;;5.03;51.57
71768;BME280;59604;52.138;5.446;2023-02-28T11:10:06;103389.75;;;5.03;51.32
71768;BME280;59604;52.138;5.446;2023-02-28T11:12:39;103401.16;;;5.02;51.32
71768;BME280;59604;52.138;5.446;2023-02-28T11:15:24;103391.63;;;5.01;50.42
71768;BME280;59604;52.138;5.446;2023-02-28T11:17:56;103388.47;;;5.11;49.88
71768;BME280;59604;52.138;5.446;2023-02-28T11:20:26;103394.09;;;5.19;51.07
71768;BME280;59604;52.138;5.446;2023-02-28T11:22:54;103381.31;;;5.14;49.12
71768;BME280;59604;52.138;5.446;2023-02-28T11:25:28;103370.34;;;5.23;49.93
71768;BME280;59604;52.138;5.446;2023-02-28T11:28:04;103382.34;;;5.26;49.12
71768;BME280;59604;52.138;5.446;2023-02-28T11:30:41;103380.34;;;5.31;50.71
71768;BME280;59604;52.138;5.446;2023-02-28T11:35:48;103372.59;;;5.44;48.73
71768;BME280;59604;52.138;5.446;2023-02-28T11:38:16;103377.34;;;5.51;49.67
71768;BME280;59604;52.138;5.446;2023-02-28T11:43:41;103362.91;;;5.46;48.58
71768;BME280;59604;52.138;5.446;2023-02-28T11:49:15;103362.81;;;5.62;50.44
71768;BME280;59604;52.138;5.446;2023-02-28T11:52:14;103356.16;;;5.70;51.09
71768;BME280;59604;52.138;5.446;2023-02-28T12:00:19;103355.25;;;5.71;47.25
71768;BME280;59604;52.138;5.446;2023-02-28T12:08:11;103348.59;;;5.80;47.32
71768;BME280;59604;52.138;5.446;2023-02-28T12:10:53;103344.97;;;5.82;48.66
71768;BME280;59604;52.138;5.446;2023-02-28T12:13:26;103348.63;;;5.94;48.07
71768;BME280;59604;52.138;5.446;2023-02-28T12:23:52;103340.66;;;5.96;46.77
71768;BME280;59604;52.138;5.446;2023-02-28T12:29:10;103340.56;;;6.12;45.95
71768;BME280;59604;52.138;5.446;2023-02-28T12:31:45;103329.72;;;6.03;45.08
71768;BME280;59604;52.138;5.446;2023-02-28T12:34:18;103326.38;;;6.01;45.22
71768;BME280;59604;52.138;5.446;2023-02-28T12:36:48;103340.00;;;6.07;45.18
71768;BME280;59604;52.138;5.446;2023-02-28T12:39:31;103330.63;;;6.17;45.48
71768;BME280;59604;52.138;5.446;2023-02-28T12:42:28;103343.63;;;6.18;45.66
71768;BME280;59604;52.138;5.446;2023-02-28T12:45:31;103341.66;;;6.22;44.57
71768;BME280;59604;52.138;5.446;2023-02-28T12:47:54;103331.78;;;6.13;44.13
71768;BME280;59604;52.138;5.446;2023-02-28T12:50:24;103324.66;;;6.15;45.60
71768;BME280;59604;52.138;5.446;2023-02-28T12:52:54;103323.06;;;6.26;44.87
71768;BME280;59604;52.138;5.446;2023-02-28T13:07:04;103306.75;;;6.36;45.18
71768;BME280;59604;52.138;5.446;2023-02-28T13:09:34;103313.56;;;6.38;43.32
71768;BME280;59604;52.138;5.446;2023-02-28T13:12:12;103312.63;;;6.39;44.96
71768;BME280;59604;52.138;5.446;2023-02-28T13:14:40;103302.91;;;6.41;44.17
71768;BME280;59604;52.138;5.446;2023-02-28T13:19:35;103303.38;;;6.61;44.35
71768;BME280;59604;52.138;5.446;2023-02-28T13:22:03;103289.44;;;6.60;45.08
71768;BME280;59604;52.138;5.446;2023-02-28T13:24:46;103298.84;;;6.63;44.48
71768;BME280;59604;52.138;5.446;2023-02-28T13:29:43;103299.81;;;6.62;43.48
71768;BME280;59604;52.138;5.446;2023-02-28T13:34:39;103289.53;;;6.59;43.77
71768;BME280;59604;52.138;5.446;2023-02-28T13:39:49;103287.78;;;6.59;42.83
71768;BME280;59604;52.138;5.446;2023-02-28T13:42:34;103297.38;;;6.59;41.90
71768;BME280;59604;52.138;5.446;2023-02-28T13:47:43;103286.00;;;6.60;43.17
71768;BME280;59604;52.138;5.446;2023-02-28T13:50:27;103274.16;;;6.67;43.93
71768;BME280;59604;52.138;5.446;2023-02-28T13:55:49;103274.44;;;6.49;42.48
71768;BME280;59604;52.138;5.446;2023-02-28T13:58:43;103276.22;;;6.49;42.48
71768;BME280;59604;52.138;5.446;2023-02-28T14:01:17;103275.59;;;6.58;43.56
71768;BME280;59604;52.138;5.446;2023-02-28T14:06:33;103262.09;;;6.64;43.33
71768;BME280;59604;52.138;5.446;2023-02-28T14:14:00;103260.66;;;6.73;42.74
71768;BME280;59604;52.138;5.446;2023-02-28T14:16:47;103264.44;;;6.82;42.62
71768;BME280;59604;52.138;5.446;2023-02-28T14:19:24;103253.94;;;6.69;42.51
71768;BME280;59604;52.138;5.446;2023-02-28T14:35:03;103243.50;;;6.82;42.33
71768;BME280;59604;52.138;5.446;2023-02-28T14:37:40;103244.41;;;6.81;42.51
71768;BME280;59604;52.138;5.446;2023-02-28T14:40:15;103249.56;;;6.82;42.29
71768;BME280;59604;52.138;5.446;2023-02-28T14:42:49;103250.81;;;6.76;42.83
71768;BME280;59604;52.138;5.446;2023-02-28T14:45:21;103243.69;;;6.78;42.11
71768;BME280;59604;52.138;5.446;2023-02-28T14:47:50;103242.63;;;6.68;42.50
71768;BME280;59604;52.138;5.446;2023-02-28T14:50:19;103244.41;;;6.68;42.53
71768;BME280;59604;52.138;5.446;2023-02-28T14:52:48;103238.25;;;6.82;42.92
71768;BME280;59604;52.138;5.446;2023-02-28T14:55:18;103242.53;;;6.83;42.88
71768;BME280;59604;52.138;5.446;2023-02-28T14:57:54;103241.28;;;6.75;42.36
71768;BME280;59604;52.138;5.446;2023-02-28T15:00:35;103244.66;;;6.77;43.55
71768;BME280;59604;52.138;5.446;2023-02-28T15:05:57;103235.41;;;6.85;42.49
71768;BME280;59604;52.138;5.446;2023-02-28T15:08:24;103238.13;;;6.83;43.40
71768;BME280;59604;52.138;5.446;2023-02-28T15:11:00;103241.47;;;6.72;43.20
71768;BME280;59604;52.138;5.446;2023-02-28T15:13:40;103246.41;;;6.64;43.51
71768;BME280;59604;52.138;5.446;2023-02-28T15:16:11;103242.94;;;6.64;43.03
71768;BME280;59604;52.138;5.446;2023-02-28T15:18:51;103243.47;;;6.56;42.40
71768;BME280;59604;52.138;5.446;2023-02-28T15:21:25;103245.72;;;6.48;43.77
71768;BME280;59604;52.138;5.446;2023-02-28T15:23:55;103243.53;;;6.42;42.24
71768;BME280;59604;52.138;5.446;2023-02-28T15:26:27;103246.03;;;6.43;42.91
71768;BME280;59604;52.138;5.446;2023-02-28T15:29:10;103248.56;;;6.45;42.85
71768;BME280;59604;52.138;5.446;2023-02-28T15:31:46;103248.75;;;6.42;43.04
71768;BME280;59604;52.138;5.446;2023-02-28T15:34:36;103250.81;;;6.37;42.87
71768;BME280;59604;52.138;5.446;2023-02-28T15:39:54;103255.41;;;6.33;43.38
71768;BME280;59604;52.138;5.446;2023-02-28T15:42:23;103246.94;;;6.29;43.67
71768;BME280;59604;52.138;5.446;2023-02-28T15:44:49;103248.94;;;6.26;42.43